createdAt,value
2023-03-05T00:01:35.368Z,50361.98
2023-03-05T00:04:06.199Z,50386.36
2023-03-05T00:06:34.718Z,50378.76
2023-03-05T00:09:04.484Z,50375.96
2023-03-05T00:11:33.916Z,50387.57
2023-03-05T00:14:04.321Z,50371.57
2023-03-05T00:16:34.266Z,50381.96
2023-03-05T00:19:02.719Z,50377.57
2023-03-05T00:21:38.124Z,50380.76
2023-03-05T00:24:10.954Z,50371.96
2023-03-05T00:26:40.308Z,50370.37
2023-03-05T00:29:09.445Z,50367.97
2023-03-05T00:31:38.829Z,50368.37
2023-03-05T00:34:12.238Z,50375.57
2023-03-05T00:36:42.809Z,50365.17
2023-03-05T00:39:12.447Z,50364.37
2023-03-05T00:41:42.195Z,50363.57
2023-03-05T00:44:10.881Z,50369.57
2023-03-05T00:46:40.399Z,50353.98
2023-03-05T00:49:09.225Z,50366.37
2023-03-05T00:51:37.554Z,50375.96
2023-03-05T00:54:06.329Z,50370.37
2023-03-05T00:56:34.672Z,50367.57
2023-03-05T00:59:03.267Z,50365.57
2023-03-05T01:01:31.528Z,50363.57
2023-03-05T01:04:01.561Z,50372.77
2023-03-05T01:06:30.568Z,50354.77
2023-03-05T01:08:59.697Z,50371.96
2023-03-05T01:11:28.302Z,50360.37
2023-03-05T01:13:56.544Z,50365.57
2023-03-05T01:16:24.825Z,50367.57
2023-03-05T01:18:53.757Z,50355.98
2023-03-05T01:21:22.201Z,50353.98
2023-03-05T01:23:50.441Z,50368.77
2023-03-05T01:26:18.672Z,50373.17
2023-03-05T01:28:46.933Z,50363.97
2023-03-05T01:31:15.364Z,50375.97
2023-03-05T01:33:43.670Z,50358.77
2023-03-05T01:36:16.032Z,50388.37
2023-03-05T01:38:45.750Z,50369.96
2023-03-05T01:41:16.013Z,50355.57
2023-03-05T01:43:46.138Z,50393.96
2023-03-05T01:46:37.203Z,50361.97
2023-03-05T01:49:23.173Z,50370.37
2023-03-05T01:52:18.159Z,50378.77
2023-03-05T01:55:12.363Z,50373.57
2023-03-05T01:57:42.911Z,50369.97
2023-03-05T02:00:37.158Z,50385.16
2023-03-05T02:03:09.924Z,50383.56
2023-03-05T02:05:41.434Z,50394.76
2023-03-05T02:08:12.672Z,50372.76
2023-03-05T02:10:46.932Z,50379.16
2023-03-05T02:13:19.768Z,50372.37
2023-03-05T02:15:49.878Z,50375.97
2023-03-05T02:18:19.809Z,50374.37
2023-03-05T02:20:56.850Z,50369.17
2023-03-05T02:23:30.406Z,50377.97
2023-03-05T02:25:58.606Z,50383.16
2023-03-05T02:28:43.256Z,50382.36
2023-03-05T02:31:18.187Z,50373.97
2023-03-05T02:33:47.743Z,50375.97
2023-03-05T02:36:16.725Z,50393.96
2023-03-05T02:38:46.010Z,50385.56
2023-03-05T02:41:15.558Z,50392.76
2023-03-05T02:43:43.948Z,50372.37
2023-03-05T02:46:12.676Z,50379.17
2023-03-05T02:48:40.956Z,50385.96
2023-03-05T02:51:11.351Z,50372.37
2023-03-05T02:53:39.650Z,50377.96
2023-03-05T02:56:07.987Z,50367.97
2023-03-05T02:58:37.113Z,50385.56
2023-03-05T03:01:05.435Z,50396.76
2023-03-05T03:03:33.731Z,50398.36
2023-03-05T03:06:02.034Z,50380.76
2023-03-05T03:08:30.185Z,50375.57
2023-03-05T03:11:08.735Z,50379.57
2023-03-05T03:13:37.112Z,50389.56
2023-03-05T03:16:08.312Z,50388.76
2023-03-05T03:18:36.774Z,50369.17
2023-03-05T03:21:06.140Z,50381.57
2023-03-05T03:23:34.778Z,50397.16
2023-03-05T03:26:03.209Z,50391.56
2023-03-05T03:28:31.377Z,50388.76
2023-03-05T03:31:00.231Z,50392.76
2023-03-05T03:33:28.757Z,50376.37
2023-03-05T03:35:57.090Z,50387.96
2023-03-05T03:38:25.372Z,50390.36
2023-03-05T03:40:53.531Z,50402.76
2023-03-05T03:43:21.947Z,50403.56
2023-03-05T03:45:50.151Z,50384.37
2023-03-05T03:48:18.330Z,50393.96
2023-03-05T03:50:46.616Z,50395.16
2023-03-05T03:53:14.936Z,50385.16
2023-03-05T03:55:45.110Z,50386.77
2023-03-05T03:58:13.813Z,50385.16
2023-03-05T04:00:42.500Z,50378.37
2023-03-05T04:03:10.711Z,50395.16
2023-03-05T04:05:39.505Z,50392.36
2023-03-05T04:08:12.153Z,50379.16
2023-03-05T04:10:40.297Z,50395.56
2023-03-05T04:13:08.849Z,50381.96
2023-03-05T04:15:38.062Z,50410.76
2023-03-05T04:18:06.336Z,50419.95
2023-03-05T04:20:36.104Z,50389.56
2023-03-05T04:23:04.330Z,50407.16
2023-03-05T04:25:32.740Z,50386.76
2023-03-05T04:28:01.007Z,50389.56
2023-03-05T04:30:29.306Z,50382.36
2023-03-05T04:32:58.300Z,50391.16
2023-03-05T04:35:27.064Z,50397.56
2023-03-05T04:37:55.435Z,50407.55
2023-03-05T04:40:23.856Z,50399.55
2023-03-05T04:42:52.102Z,50394.36
2023-03-05T04:45:20.527Z,50397.16
2023-03-05T04:47:48.786Z,50399.56
2023-03-05T04:50:17.074Z,50389.56
2023-03-05T04:52:46.397Z,50381.56
2023-03-05T04:55:17.089Z,50401.55
2023-03-05T04:57:47.536Z,50389.96
2023-03-05T05:00:17.610Z,50402.36
2023-03-05T05:02:48.323Z,50415.55
2023-03-05T05:05:19.636Z,50394.76
2023-03-05T05:07:48.984Z,50406.36
2023-03-05T05:10:17.645Z,50401.56
2023-03-05T05:12:45.790Z,50394.76
2023-03-05T05:15:14.081Z,50397.96
2023-03-05T05:17:42.281Z,50392.37
2023-03-05T05:20:12.623Z,50390.36
2023-03-05T05:22:41.326Z,50393.96
2023-03-05T05:25:10.695Z,50405.16
2023-03-05T05:27:40.319Z,50387.96
2023-03-05T05:30:09.535Z,50403.16
2023-03-05T05:32:37.872Z,50388.76
2023-03-05T05:35:06.625Z,50384.77
2023-03-05T05:37:35.095Z,50387.56
2023-03-05T05:40:05.901Z,50397.96
2023-03-05T05:42:34.642Z,50391.56
2023-03-05T05:45:04.075Z,50398.36
2023-03-05T05:47:32.344Z,50387.56
2023-03-05T05:50:00.502Z,50407.96
2023-03-05T05:52:28.695Z,50400.76
2023-03-05T05:54:56.882Z,50396.76
2023-03-05T05:57:25.233Z,50396.76
2023-03-05T05:59:54.875Z,50394.36
2023-03-05T06:02:23.171Z,50394.76
2023-03-05T06:04:51.396Z,50383.16
2023-03-05T06:07:19.683Z,50379.56
2023-03-05T06:09:51.124Z,50389.16
2023-03-05T06:12:19.500Z,50374.77
2023-03-05T06:14:47.918Z,50383.16
2023-03-05T06:17:25.125Z,50374.77
2023-03-05T06:19:59.901Z,50364.38
2023-03-05T06:22:28.526Z,50374.77
2023-03-05T06:24:56.704Z,50393.96
2023-03-05T06:27:24.873Z,50364.37
2023-03-05T06:29:56.823Z,50362.77
2023-03-05T06:32:25.183Z,50370.77
2023-03-05T06:34:53.443Z,50375.16
2023-03-05T06:37:21.824Z,50348.77
2023-03-05T06:39:49.992Z,50372.37
2023-03-05T06:42:19.820Z,50378.36
2023-03-05T06:44:48.506Z,50380.77
2023-03-05T06:47:16.803Z,50371.57
2023-03-05T06:49:45.196Z,50351.98
2023-03-05T06:52:13.557Z,50362.37
2023-03-05T06:54:43.490Z,50350.38
2023-03-05T06:57:12.020Z,50351.57
2023-03-05T06:59:40.480Z,50349.18
2023-03-05T07:02:12.246Z,50357.18
2023-03-05T07:04:41.000Z,50350.38
2023-03-05T07:07:09.185Z,50357.97
2023-03-05T07:09:43.809Z,50375.17
2023-03-05T07:12:12.920Z,50350.77
2023-03-05T07:14:41.229Z,50346.38
2023-03-05T07:17:09.960Z,50361.17
2023-03-05T07:19:38.570Z,50358.38
2023-03-05T07:22:08.354Z,50339.58
2023-03-05T07:24:36.923Z,50358.38
2023-03-05T07:27:05.165Z,50349.98
2023-03-05T07:29:34.546Z,50353.98
2023-03-05T07:32:03.241Z,50345.98
2023-03-05T07:34:35.280Z,50336.78
2023-03-05T07:37:03.566Z,50354.38
2023-03-05T07:39:31.846Z,50353.98
2023-03-05T07:42:00.381Z,50360.77
2023-03-05T07:44:30.584Z,50331.98
2023-03-05T07:46:58.775Z,50327.98
2023-03-05T07:49:27.471Z,50319.99
2023-03-05T07:51:55.643Z,50331.18
2023-03-05T07:54:23.882Z,50349.97
2023-03-05T07:56:56.009Z,50336.38
2023-03-05T07:59:24.281Z,50355.98
2023-03-05T08:01:52.618Z,50336.38
2023-03-05T08:04:21.292Z,50338.38
2023-03-05T08:06:50.219Z,50341.18
2023-03-05T08:09:19.279Z,50331.57
2023-03-05T08:11:47.737Z,50334.78
2023-03-05T08:14:16.119Z,50323.18
2023-03-05T08:16:47.120Z,50340.38
2023-03-05T08:19:16.393Z,50332.78
2023-03-05T08:21:45.757Z,50339.18
2023-03-05T08:24:15.237Z,50333.98
2023-03-05T08:26:43.838Z,50339.98
2023-03-05T08:29:12.480Z,50335.98
2023-03-05T08:31:44.974Z,50329.18
2023-03-05T08:34:15.957Z,50342.77
2023-03-05T08:36:44.134Z,50320.38
2023-03-05T08:39:12.373Z,50331.58
2023-03-05T08:41:40.789Z,50337.98
2023-03-05T08:44:09.320Z,50344.38
2023-03-05T08:46:40.711Z,50323.98
2023-03-05T08:49:10.317Z,50334.78
2023-03-05T08:51:38.614Z,50325.98
2023-03-05T08:54:07.811Z,50323.98
2023-03-05T08:56:38.489Z,50331.18
2023-03-05T08:59:06.830Z,50340.77
2023-03-05T09:01:35.803Z,50329.18
2023-03-05T09:04:04.184Z,50339.18
2023-03-05T09:06:34.491Z,50319.98
2023-03-05T09:09:04.040Z,50325.58
2023-03-05T09:11:36.171Z,50319.59
2023-03-05T09:14:05.342Z,50330.78
2023-03-05T09:16:33.882Z,50330.38
2023-03-05T09:19:02.929Z,50335.98
2023-03-05T09:21:31.357Z,50331.18
2023-03-05T09:24:00.780Z,50326.78
2023-03-05T09:26:30.820Z,50328.78
2023-03-05T09:28:59.026Z,50329.58
2023-03-05T09:31:30.382Z,50319.98
2023-03-05T09:33:59.343Z,50307.19
2023-03-05T09:36:30.547Z,50314.39
2023-03-05T09:38:59.172Z,50322.79
2023-03-05T09:41:38.000Z,50319.18
2023-03-05T09:44:41.845Z,50335.18
2023-03-05T09:47:15.942Z,50319.59
2023-03-05T09:50:14.403Z,50329.98
2023-03-05T09:52:50.539Z,50320.39
2023-03-05T09:55:36.055Z,50334.78
2023-03-05T09:58:26.742Z,50333.18
2023-03-05T10:01:00.684Z,50316.38
2023-03-05T10:03:41.605Z,50329.58
2023-03-05T10:06:23.757Z,50322.78
2023-03-05T10:09:10.297Z,50317.59
2023-03-05T10:11:44.287Z,50320.38
2023-03-05T10:14:22.801Z,50322.38
2023-03-05T10:17:00.546Z,50304.39
2023-03-05T10:20:06.722Z,50318.39
2023-03-05T10:23:11.862Z,50323.59
2023-03-05T10:26:24.733Z,50318.79
2023-03-05T10:29:18.854Z,50331.58
2023-03-05T10:32:02.322Z,50333.58
2023-03-05T10:35:04.297Z,50319.98
2023-03-05T10:38:03.888Z,50311.18
2023-03-05T10:40:32.814Z,50302.39
2023-03-05T10:43:42.611Z,50323.18
2023-03-05T10:46:17.177Z,50312.78
2023-03-05T10:48:49.737Z,50324.78
2023-03-05T10:51:30.457Z,50317.98
2023-03-05T10:54:09.687Z,50318.39
2023-03-05T10:56:38.069Z,50302.39
2023-03-05T10:59:06.608Z,50312.79
2023-03-05T11:01:39.696Z,50339.18
2023-03-05T11:04:28.676Z,50309.59
2023-03-05T11:06:57.042Z,50326.38
2023-03-05T11:09:32.929Z,50317.18
2023-03-05T11:12:08.923Z,50331.58
2023-03-05T11:14:38.989Z,50305.59
2023-03-05T11:17:30.377Z,50328.78
2023-03-05T11:20:27.925Z,50309.19
2023-03-05T11:23:12.684Z,50331.58
2023-03-05T11:26:04.063Z,50327.18
2023-03-05T11:28:38.561Z,50328.78
2023-03-05T11:31:16.481Z,50325.18
2023-03-05T11:34:24.002Z,50318.79
2023-03-05T11:36:55.947Z,50333.98
2023-03-05T11:39:26.396Z,50312.79
2023-03-05T11:42:03.600Z,50321.98
2023-03-05T11:44:43.174Z,50330.38
2023-03-05T11:47:12.787Z,50313.59
2023-03-05T11:49:45.764Z,50338.78
2023-03-05T11:52:34.412Z,50330.38
2023-03-05T11:55:18.102Z,50310.79
2023-03-05T11:58:22.970Z,50309.98
2023-03-05T12:00:51.457Z,50328.38
2023-03-05T12:03:25.530Z,50309.59
2023-03-05T12:05:59.653Z,50326.78
2023-03-05T12:08:35.904Z,50323.58
2023-03-05T12:11:31.714Z,50317.59
2023-03-05T12:14:27.480Z,50328.78
2023-03-05T12:17:15.445Z,50311.99
2023-03-05T12:19:52.332Z,50325.58
2023-03-05T12:22:24.019Z,50341.57
2023-03-05T12:24:53.036Z,50325.18
2023-03-05T12:27:37.040Z,50323.59
2023-03-05T12:30:06.310Z,50329.98
2023-03-05T12:32:35.464Z,50321.19
2023-03-05T12:35:23.019Z,50322.78
2023-03-05T12:37:51.652Z,50327.59
2023-03-05T12:40:19.897Z,50330.38
2023-03-05T12:43:27.290Z,50329.18
2023-03-05T12:46:26.922Z,50304.79
2023-03-05T12:48:55.380Z,50319.18
2023-03-05T12:51:34.012Z,50328.78
2023-03-05T12:54:33.772Z,50333.58
2023-03-05T12:57:18.616Z,50334.38
2023-03-05T12:59:55.981Z,50324.38
2023-03-05T13:02:35.310Z,50325.58
2023-03-05T13:05:15.946Z,50326.38
2023-03-05T13:07:44.201Z,50341.98
2023-03-05T13:10:24.271Z,50333.18
2023-03-05T13:12:54.907Z,50334.38
2023-03-05T13:15:26.135Z,50339.98
2023-03-05T13:18:03.642Z,50337.98
2023-03-05T13:20:39.206Z,50326.38
2023-03-05T13:23:13.041Z,50330.38
2023-03-05T13:25:42.043Z,50320.38
2023-03-05T13:28:17.222Z,50321.18
2023-03-05T13:30:59.895Z,50335.58
2023-03-05T13:33:36.529Z,50345.98
2023-03-05T13:36:06.503Z,50332.38
2023-03-05T13:38:43.669Z,50335.58
2023-03-05T13:41:14.864Z,50340.77
2023-03-05T13:43:44.292Z,50330.38
2023-03-05T13:46:14.011Z,50336.38
2023-03-05T13:48:42.198Z,50314.38
2023-03-05T13:51:12.158Z,50342.38
2023-03-05T13:53:41.740Z,50320.38
2023-03-05T13:56:16.864Z,50348.77
2023-03-05T13:58:57.172Z,50332.38
2023-03-05T14:23:48.970Z,50311.18
2023-03-05T14:40:33.844Z,50331.98
2023-03-05T14:43:07.314Z,50344.38
2023-03-05T14:45:45.408Z,50349.18
2023-03-05T14:48:17.715Z,50332.38
2023-03-05T14:50:55.189Z,50333.98
2023-03-05T14:53:28.250Z,50349.18
2023-03-05T14:55:57.054Z,50338.78
2023-03-05T14:58:29.699Z,50348.77
2023-03-05T15:00:59.257Z,50357.57
2023-03-05T15:03:28.385Z,50351.18
2023-03-05T15:05:58.849Z,50353.57
2023-03-05T15:08:30.457Z,50350.77
2023-03-05T15:11:00.135Z,50357.57
2023-03-05T15:13:28.746Z,50358.37
2023-03-05T15:15:57.145Z,50349.18
2023-03-05T15:18:25.506Z,50335.98
2023-03-05T15:20:55.117Z,50344.77
2023-03-05T15:23:24.180Z,50371.57
2023-03-05T15:25:52.668Z,50355.98
2023-03-05T15:28:20.944Z,50348.77
2023-03-05T15:30:49.374Z,50358.77
2023-03-05T15:33:18.735Z,50373.16
2023-03-05T15:35:47.223Z,50355.18
2023-03-05T15:38:17.506Z,50357.57
2023-03-05T15:40:46.294Z,50343.98
2023-03-05T15:43:15.164Z,50358.77
2023-03-05T15:45:44.072Z,50354.38
2023-03-05T15:48:13.895Z,50351.18
2023-03-05T15:50:43.926Z,50353.97
2023-03-05T15:53:16.597Z,50363.57
2023-03-05T15:55:46.707Z,50357.97
2023-03-05T15:58:17.964Z,50379.96
2023-03-05T16:00:47.729Z,50347.18
2023-03-05T16:03:16.079Z,50367.97
2023-03-05T16:05:44.531Z,50372.37
2023-03-05T16:08:13.009Z,50358.37
2023-03-05T16:10:41.481Z,50351.57
2023-03-05T16:13:13.882Z,50355.98
2023-03-05T16:15:43.964Z,50362.37
2023-03-05T16:18:16.592Z,50366.37
2023-03-05T16:20:47.706Z,50367.57
2023-03-05T16:23:16.024Z,50379.16
2023-03-05T16:25:44.323Z,50371.17
2023-03-05T16:28:12.717Z,50352.77
2023-03-05T16:30:41.640Z,50365.57
2023-03-05T16:33:12.524Z,50351.18
2023-03-05T16:35:41.552Z,50358.77
2023-03-05T16:38:09.926Z,50354.77
2023-03-05T16:41:05.880Z,50364.37
2023-03-05T16:43:27.309Z,50353.17
2023-03-05T16:45:55.636Z,50344.77
2023-03-05T16:48:24.919Z,50347.18
2023-03-05T16:50:54.335Z,50352.38
2023-03-05T16:53:22.656Z,50364.77
2023-03-05T16:55:50.839Z,50353.18
2023-03-05T16:58:19.134Z,50381.56
2023-03-05T17:00:49.158Z,50360.37
2023-03-05T17:03:17.478Z,50367.17
2023-03-05T17:05:48.175Z,50369.96
2023-03-05T17:08:16.512Z,50375.16
2023-03-05T17:10:45.122Z,50357.17
2023-03-05T17:13:13.558Z,50373.57
2023-03-05T17:18:15.126Z,50378.37
2023-03-05T17:20:44.464Z,50367.57
2023-03-05T17:23:12.986Z,50359.17
2023-03-05T17:25:41.274Z,50366.77
2023-03-05T17:28:10.899Z,50369.96
2023-03-05T17:30:39.387Z,50377.96
2023-03-05T17:33:08.623Z,50370.37
2023-03-05T17:35:37.365Z,50363.97
2023-03-05T17:38:11.611Z,50349.18
2023-03-05T17:40:41.942Z,50364.37
2023-03-05T17:43:11.433Z,50350.38
2023-03-05T17:45:39.659Z,50350.38
2023-03-05T17:48:08.895Z,50365.17
2023-03-05T17:50:38.614Z,50362.37
2023-03-05T17:53:07.430Z,50379.16
2023-03-05T17:55:35.791Z,50352.77
2023-03-05T17:58:04.225Z,50359.17
2023-03-05T18:00:33.593Z,50363.97
2023-03-05T18:03:02.335Z,50369.97
2023-03-05T18:05:30.865Z,50366.77
2023-03-05T18:08:00.904Z,50360.38
2023-03-05T18:10:30.768Z,50368.77
2023-03-05T18:12:59.557Z,50355.18
2023-03-05T18:15:29.499Z,50366.37
2023-03-05T18:17:58.995Z,50365.97
2023-03-05T18:20:29.871Z,50364.37
2023-03-05T18:23:00.535Z,50381.96
2023-03-05T18:25:32.520Z,50381.56
2023-03-05T18:28:07.570Z,50373.16
2023-03-05T18:30:40.093Z,50381.96
2023-03-05T18:33:14.261Z,50365.97
2023-03-05T18:35:42.672Z,50370.37
2023-03-05T18:38:11.319Z,50361.57
2023-03-05T18:40:41.667Z,50380.77
2023-03-05T18:43:11.259Z,50351.57
2023-03-05T18:45:39.581Z,50358.77
2023-03-05T18:48:09.040Z,50359.57
2023-03-05T18:50:37.325Z,50369.57
2023-03-05T18:53:05.615Z,50359.17
2023-03-05T18:55:33.905Z,50349.18
2023-03-05T18:58:03.720Z,50365.17
2023-03-05T19:00:36.165Z,50351.18
2023-03-05T19:03:07.529Z,50366.37
2023-03-05T19:05:37.987Z,50357.18
2023-03-05T19:08:07.883Z,50368.77
2023-03-05T19:10:36.948Z,50359.57
2023-03-05T19:13:49.225Z,50349.57
2023-03-05T19:16:31.055Z,50357.17
2023-03-05T19:19:24.725Z,50369.17
2023-03-05T19:21:58.181Z,50345.57
2023-03-05T19:24:29.638Z,50375.96
2023-03-05T19:27:01.172Z,50359.57
2023-03-05T19:29:37.715Z,50376.37
2023-03-05T19:32:08.364Z,50369.57
2023-03-05T19:34:37.351Z,50385.16
2023-03-05T19:37:06.518Z,50366.77
2023-03-05T19:39:35.938Z,50360.77
2023-03-05T19:42:04.513Z,50368.37
2023-03-05T19:44:32.890Z,50385.57
2023-03-05T19:47:01.454Z,50379.96
2023-03-05T19:49:29.926Z,50361.97
2023-03-05T19:51:58.156Z,50357.57
2023-03-05T19:54:27.490Z,50364.77
2023-03-05T19:56:56.036Z,50361.17
2023-03-05T19:59:25.187Z,50377.16
2023-03-05T20:01:53.833Z,50365.17
2023-03-05T20:04:23.852Z,50383.96
2023-03-05T20:06:52.261Z,50363.57
2023-03-05T20:09:20.865Z,50377.97
2023-03-05T20:11:49.210Z,50377.57
2023-03-05T20:14:17.443Z,50366.77
2023-03-05T20:16:45.734Z,50361.17
2023-03-05T20:19:18.988Z,50371.57
2023-03-05T20:21:47.584Z,50382.77
2023-03-05T20:24:18.346Z,50365.57
2023-03-05T20:26:47.257Z,50380.37
2023-03-05T20:29:18.052Z,50380.77
2023-03-05T20:31:47.779Z,50379.57
2023-03-05T20:34:19.432Z,50366.37
2023-03-05T20:36:47.958Z,50369.17
2023-03-05T20:39:18.841Z,50370.77
2023-03-05T20:41:47.311Z,50358.38
2023-03-05T20:44:16.739Z,50377.57
2023-03-05T20:47:12.731Z,50364.77
2023-03-05T20:49:56.821Z,50375.96
2023-03-05T20:52:25.075Z,50378.77
2023-03-05T20:54:53.398Z,50374.37
2023-03-05T20:57:21.680Z,50363.17
2023-03-05T20:59:49.842Z,50374.37
2023-03-05T21:02:18.526Z,50370.37
2023-03-05T21:04:46.945Z,50385.17
2023-03-05T21:07:15.117Z,50366.77
2023-03-05T21:09:43.304Z,50363.17
2023-03-05T21:12:14.745Z,50367.17
2023-03-05T21:14:42.934Z,50364.37
2023-03-05T21:17:11.232Z,50364.37
2023-03-05T21:19:39.507Z,50362.77
2023-03-05T21:22:07.777Z,50375.96
2023-03-05T21:25:17.385Z,50373.17
2023-03-05T21:27:45.851Z,50383.16
2023-03-05T21:30:15.244Z,50371.16
2023-03-05T21:32:47.060Z,50371.17
2023-03-05T21:35:20.902Z,50380.76
2023-03-05T21:37:52.847Z,50356.77
2023-03-05T21:40:22.334Z,50371.57
2023-03-05T21:42:53.865Z,50365.57
2023-03-05T21:45:25.652Z,50379.16
2023-03-05T21:47:56.218Z,50369.97
2023-03-05T21:50:25.919Z,50367.57
2023-03-05T21:52:54.386Z,50367.96
2023-03-05T21:55:55.190Z,50373.96
2023-03-05T21:58:29.626Z,50365.17
2023-03-05T22:00:58.801Z,50373.97
2023-03-05T22:03:27.885Z,50365.97
2023-03-05T22:05:57.127Z,50379.16
2023-03-05T22:08:25.403Z,50385.96
2023-03-05T22:10:54.875Z,50364.77
2023-03-05T22:13:23.269Z,50370.37
2023-03-05T22:15:57.268Z,50385.57
2023-03-05T22:18:28.345Z,50376.36
2023-03-05T22:20:57.735Z,50369.17
2023-03-05T22:23:29.357Z,50384.36
2023-03-05T22:26:05.939Z,50377.57
2023-03-05T22:28:36.426Z,50383.96
2023-03-05T22:31:05.920Z,50367.97
2023-03-05T22:33:34.276Z,50373.17
2023-03-05T22:36:10.938Z,50375.17
2023-03-05T22:38:40.391Z,50387.16
2023-03-05T22:41:14.347Z,50365.97
2023-03-05T22:43:42.998Z,50384.36
2023-03-05T22:46:25.836Z,50361.97
2023-03-05T22:48:54.593Z,50373.17
2023-03-05T22:51:23.310Z,50355.57
2023-03-05T22:53:51.539Z,50370.37
2023-03-05T22:56:20.775Z,50362.37
2023-03-05T22:58:50.362Z,50373.17
2023-03-05T23:01:21.733Z,50371.57
2023-03-05T23:04:03.982Z,50354.77
2023-03-05T23:06:42.510Z,50360.77
2023-03-05T23:09:10.701Z,50365.17
2023-03-05T23:11:39.671Z,50383.16
2023-03-05T23:14:07.950Z,50356.77
2023-03-05T23:16:36.119Z,50362.37
2023-03-05T23:19:04.277Z,50370.77
2023-03-05T23:21:34.492Z,50372.37
2023-03-05T23:24:03.212Z,50372.77
2023-03-05T23:26:31.732Z,50357.17
2023-03-05T23:29:00.028Z,50365.97
2023-03-05T23:31:31.409Z,50373.57
2023-03-05T23:33:59.867Z,50383.56
2023-03-05T23:36:28.291Z,50370.37
2023-03-05T23:38:58.212Z,50377.16
2023-03-05T23:41:26.346Z,50359.98
2023-03-05T23:43:54.549Z,50395.56
2023-03-05T23:46:22.833Z,50385.16
2023-03-05T23:48:51.029Z,50379.96
2023-03-05T23:51:19.390Z,50370.77
2023-03-05T23:53:48.584Z,50370.77
2023-03-05T23:56:16.821Z,50367.17
2023-03-05T23:58:45.000Z,50367.57
